HomeShort term forecast

Short term forecast

Graphical weather forecast for the next 48 hours for Montreal:
Short term forecast
This weather forecast is automatically refreshed every 3 hours.

Hourly Experimental Forecast for the next 48 hours

Overall summary: Partly cloudy starting this afternoon, continuing until this evening.

 Date & Hour   Temp   Feel   Baro   Hum   Speed & Bearing   Precipitation   Visibility   Cloud cover   Conditions 
 23/04/2018 - 06:00  1.3°C  1.3°C  1030.9 hPa  67%  3.7 km/h   --  16.1km  2%  Clear 
 23/04/2018 - 07:00  2.5°C  2.5°C  1031.5 hPa  62%  4.1 km/h   0.02 mm/h  16.1km  3%  Clear 
 23/04/2018 - 08:00  4.4°C  3.5°C  1031.8 hPa  56%  4.9 km/h   --  16.1km  3%  Clear 
 23/04/2018 - 09:00  7.1°C  6.4°C  1032.0 hPa  47%  5.5 km/h   --  16.1km  5%  Clear 
 23/04/2018 - 10:00  10.2°C  10.2°C  1031.8 hPa  39%  6.5 km/h   0.02 mm/h  16.1km  2%  Clear 
 23/04/2018 - 11:00  12.7°C  12.7°C  1031.6 hPa  35%  7.1 km/h   0.03 mm/h  16.1km  1%  Clear 
 23/04/2018 - 12:00  14.5°C  14.5°C  1030.8 hPa  32%  7.7 km/h   --  16.1km  7%  Clear 
 23/04/2018 - 13:00  15.9°C  15.9°C  1030.2 hPa  27%  9.8 km/h   0.05 mm/h  16.1km  41%  Partly Cloudy 
 23/04/2018 - 14:00  16.7°C  16.7°C  1029.4 hPa  27%  10.7 km/h   0.01 mm/h  16.1km  40%  Partly Cloudy 
 23/04/2018 - 15:00  17.2°C  17.2°C  1028.6 hPa  27%  10.6 km/h   0.02 mm/h  16.1km  18%  Clear 
 23/04/2018 - 16:00  17.6°C  17.6°C  1028.0 hPa  29%  11.0 km/h   --  16.1km  46%  Partly Cloudy 
 23/04/2018 - 17:00  17.8°C  17.8°C  1027.4 hPa  30%  10.5 km/h   0.04 mm/h  16.1km  52%  Partly Cloudy 
 23/04/2018 - 18:00  17.4°C  17.4°C  1027.1 hPa  32%  10.4 km/h   --  16.1km  30%  Partly Cloudy 
 23/04/2018 - 19:00  15.7°C  15.7°C  1026.6 hPa  42%  8.1 km/h   --  16.1km  25%  Partly Cloudy 
 23/04/2018 - 20:00  14.2°C  14.2°C  1026.5 hPa  48%  7.0 km/h   --  16.1km  17%  Clear 
 23/04/2018 - 21:00  12.6°C  12.6°C  1026.4 hPa  53%  7.6 km/h   --  16.1km  17%  Clear 
 23/04/2018 - 22:00  11.0°C  11.0°C  1026.4 hPa  57%  8.9 km/h   --  16.1km  17%  Clear 
 23/04/2018 - 23:00  9.5°C  8.1°C  1026.4 hPa  62%  9.5 km/h   --  16.1km  16%  Clear 
 24/04/2018 - 00:00  8.2°C  6.8°C  1026.3 hPa  66%  8.6 km/h   --  16.1km  18%  Clear 
 24/04/2018 - 01:00  7.2°C  5.9°C  1026.2 hPa  70%  7.1 km/h   --  16.1km  21%  Clear 
 24/04/2018 - 02:00  6.5°C  5.5°C  1026.1 hPa  72%  6.1 km/h   --  16.1km  28%  Partly Cloudy 
 24/04/2018 - 03:00  5.9°C  4.8°C  1025.9 hPa  73%  5.9 km/h   --  16.1km  40%  Partly Cloudy 
 24/04/2018 - 04:00  5.5°C  4.3°C  1025.6 hPa  73%  6.2 km/h   --  16.1km  56%  Partly Cloudy 
 24/04/2018 - 05:00  5.4°C  3.9°C  1025.5 hPa  74%  6.9 km/h   --  16.1km  67%  Mostly Cloudy 
 24/04/2018 - 06:00  5.9°C  4.1°C  1025.6 hPa  73%  8.3 km/h   --  16.1km  69%  Mostly Cloudy 
 24/04/2018 - 07:00  6.9°C  4.9°C  1025.8 hPa  72%  10.1 km/h   --  16.1km  68%  Mostly Cloudy 
 24/04/2018 - 08:00  8.4°C  6.4°C  1025.9 hPa  68%  12.1 km/h   --  16.1km  68%  Mostly Cloudy 
 24/04/2018 - 09:00  10.4°C  10.4°C  1025.7 hPa  64%  14.3 km/h   --  16.1km  77%  Mostly Cloudy 
 24/04/2018 - 10:00  13.0°C  13.0°C  1025.4 hPa  58%  16.4 km/h   --  16.1km  87%  Mostly Cloudy 
 24/04/2018 - 11:00  15.1°C  15.1°C  1025.0 hPa  53%  17.9 km/h   0.01 mm/h  16.1km  94%  Overcast 
 24/04/2018 - 12:00  16.8°C  16.8°C  1024.4 hPa  48%  18.6 km/h   0.01 mm/h  16.1km  93%  Mostly Cloudy 
 24/04/2018 - 13:00  18.0°C  18.0°C  1023.8 hPa  43%  18.7 km/h   0.01 mm/h  16.1km  88%  Mostly Cloudy 
 24/04/2018 - 14:00  18.9°C  18.9°C  1023.1 hPa  40%  18.6 km/h   0.01 mm/h  16.1km  84%  Mostly Cloudy 
 24/04/2018 - 15:00  19.3°C  19.3°C  1022.5 hPa  38%  18.6 km/h   0.01 mm/h  16.1km  78%  Mostly Cloudy 
 24/04/2018 - 16:00  19.4°C  19.4°C  1021.8 hPa  37%  18.4 km/h   0.01 mm/h  16.1km  73%  Mostly Cloudy 
 24/04/2018 - 17:00  19.2°C  19.2°C  1021.3 hPa  37%  17.5 km/h   --  16.1km  72%  Mostly Cloudy 
 24/04/2018 - 18:00  18.3°C  18.3°C  1021.1 hPa  39%  15.2 km/h   --  16.1km  78%  Mostly Cloudy 
 24/04/2018 - 19:00  16.8°C  16.8°C  1021.1 hPa  44%  12.2 km/h   --  16.1km  90%  Mostly Cloudy 
 24/04/2018 - 20:00  15.3°C  15.3°C  1021.0 hPa  49%  9.9 km/h   --  16.1km  98%  Overcast 
 24/04/2018 - 21:00  14.0°C  14.0°C  1020.9 hPa  53%  8.7 km/h   --  16.1km  99%  Overcast 
 24/04/2018 - 22:00  12.8°C  12.8°C  1020.7 hPa  55%  8.1 km/h   --  16.1km  99%  Overcast 
 24/04/2018 - 23:00  11.9°C  11.9°C  1020.5 hPa  58%  8.1 km/h   --  16.1km  100%  Overcast 
 25/04/2018 - 00:00  11.3°C  11.3°C  1020.2 hPa  60%  8.9 km/h   --  16.1km  100%  Overcast 
 25/04/2018 - 01:00  11.1°C  11.1°C  1019.8 hPa  61%  10.1 km/h   --  16.1km  100%  Overcast 
 25/04/2018 - 02:00  11.0°C  11.0°C  1019.5 hPa  62%  10.9 km/h   --  16.1km  100%  Overcast 
 25/04/2018 - 03:00  10.9°C  10.9°C  1019.2 hPa  63%  10.4 km/h   --  16.1km  100%  Overcast 
 25/04/2018 - 04:00  10.5°C  10.5°C  1019.0 hPa  66%  9.4 km/h   --  16.1km  100%  Overcast 
 25/04/2018 - 05:00  10.0°C  8.9°C  1018.8 hPa  70%  8.5 km/h   0.01 mm/h  16.1km  100%  Overcast 
Test

 

Past weather and reports

Past weatherFind in this section the past weather conditions, weather archive, graphics, reports and statistics.

Current conditions

Current weather condition for MontrealAll you need to know about the current weather conditions for Montreal. Weather data is updated every 10 minutes.

Weather forecast

Current Montreal weatherSince 2004, celinium.com website has provided accurate weather forecast for Montreal's island.